Terminal Aerodrome Forecast
Issued by NWS Denver/Boulder, CO

Home | Current Version | Previous Version | Text Only | Print | Product List | Glossary On
Versions: 1 2 3 4 5 6 7 8 9 10 11 12 13 14 15 16 17 18 19 20 21 22 23 24 25 26 27 28 29 30 31 32 33 34 35 36 37 38 39 40 41 42 43 44 45 46 47 48 49 50
000
FTUS45 KBOU 261500 AAB
TAFDEN
TAF AMD
KDEN 261500Z 2615/2718 31004KT P6SM SCT008 BKN045
      TEMPO 2616/2617 BKN008
     FM261700 03004KT P6SM SCT020 BKN050
     FM262100 07008KT P6SM SCT050 BKN080
     FM270400 16008KT P6SM BKN050
     FM270900 20008KT P6SM SCT050 BKN080
     FM271500 15007KT P6SM SCT050 BKN080=

USA.gov is the U.S. government's official web portal to all federal, state and local government web resources and services.